Mustafa Sofuoglu — TCOJ7 — position and weather

sailwx.info

Track history (hours):
 
Tides and Currents Weather Stations Pressure Air Temp Water Temp Dewpoint Dewpoint Depression Visibility Wind Speed Wind Dir Waves Ship Positions

Mustafa Sofuoglu

Last reported at 2016-May-19 00:33 UTC. Time now 2016-May-31 18:01 UTC.
Position N 40°58' E 029°00'.
Warning: this ship's position is 12 days out of date.

Length 106 m; draft 5.4 m.

Type: Cargo ship. MMSI: 271000831.

Date/timePositionNaut miles runAvg speedWind from/ knotsBaromVisibWave heightAir tempDewpointWater temp
2016-May-19 00:33N 40°58' E 029°00'8 6.5
2016-May-18 23:23N 40°53' E 029°08'3 3.5
2016-May-18 22:27N 40°51' E 029°11'0 0.0
2016-May-18 21:33N 40°51' E 029°11'0 0.1
2016-May-18 20:33N 40°51' E 029°11'0 0.0
2016-May-18 19:15N 40°51' E 029°11'0 0.0
2016-May-18 18:33N 40°51' E 029°11'0 0.0
2016-May-18 17:33N 40°51' E 029°11'0 0.0
2016-May-18 16:33N 40°51' E 029°11'0 0.0
2016-May-18 15:33N 40°51' E 029°11'0 0.0
2016-May-18 14:33N 40°51' E 029°11'0 0.0
2016-May-18 13:33N 40°51' E 029°11'4 4.1
2016-May-18 12:33N 40°48' E 029°14'1211.4
2016-May-18 11:32N 40°45' E 029°29'  
2016-May-16 00:29N 40°46' E 029°26'7 7.1
2016-May-15 23:33N 40°45' E 029°17'1212.4
2016-May-15 22:33N 40°50' E 029°02'10 9.8
2016-May-15 21:33N 40°59' E 028°60'32610.4
2016-May-14 14:09N 46°15' E 030°54'711.2
2016-May-14 13:33N 46°22' E 030°52'9 8.9
2016-May-14 12:34N 46°29' E 030°45'0 0.3
2016-May-14 11:31N 46°29' E 030°45'0 0.0
2016-May-14 10:31N 46°29' E 030°45'0 0.0
2016-May-14 09:31N 46°29' E 030°45'0 0.0
2016-May-14 08:31N 46°29' E 030°45'0 0.0
2016-May-14 07:31N 46°29' E 030°45'0 0.0
2016-May-14 06:28N 46°29' E 030°45'0 0.0
2016-May-14 05:31N 46°29' E 030°45'0 0.0
2016-May-14 04:31N 46°29' E 030°45'0 0.0
2016-May-14 03:31N 46°29' E 030°45'0 0.0
2016-May-14 02:31N 46°29' E 030°45'0 0.0
2016-May-14 01:31N 46°29' E 030°45'0 0.0
2016-May-14 00:31N 46°29' E 030°45'0 0.0
2016-May-13 23:31N 46°29' E 030°45'0 0.0
2016-May-13 22:31N 46°29' E 030°45'0 0.0
2016-May-13 21:31N 46°29' E 030°45'0 0.0
2016-May-13 20:31N 46°29' E 030°45'0 0.0
2016-May-13 19:31N 46°29' E 030°45'0 0.0
2016-May-13 18:31N 46°29' E 030°45'0 0.0
2016-May-13 17:31N 46°29' E 030°45'0 0.0
2016-May-13 16:31N 46°29' E 030°45'0 0.0
2016-May-13 15:31N 46°29' E 030°45'0 0.0
2016-May-13 14:31N 46°29' E 030°45'0 0.0
2016-May-13 13:31N 46°29' E 030°45'0 0.0
2016-May-13 12:31N 46°29' E 030°45'0 0.4
2016-May-13 11:33N 46°29' E 030°45'4 3.7
2016-May-13 10:33N 46°29' E 030°51'2 1.8
2016-May-13 09:32N 46°28' E 030°53'0 0.0
2016-May-13 08:32N 46°28' E 030°53'0 0.0
2016-May-13 07:32N 46°28' E 030°53'0 0.0
2016-May-13 06:32N 46°28' E 030°53'0 0.0
2016-May-13 05:32N 46°28' E 030°53'0 0.0
2016-May-13 04:32N 46°28' E 030°53'0 0.0
2016-May-13 03:32N 46°28' E 030°53'0 0.0
2016-May-13 02:32N 46°28' E 030°53'0 0.0
2016-May-13 01:32N 46°28' E 030°53'0 0.0
2016-May-13 00:32N 46°28' E 030°53'0 0.0
2016-May-12 23:32N 46°28' E 030°53'0 0.0
2016-May-12 22:32N 46°28' E 030°53'0 0.0
2016-May-12 21:32N 46°28' E 030°53'0 0.0
2016-May-12 20:32N 46°28' E 030°53'0 0.0
2016-May-12 19:32N 46°28' E 030°53'0 0.0
2016-May-12 18:32N 46°28' E 030°53'0 0.0
2016-May-12 17:32N 46°28' E 030°53'0 0.0
2016-May-12 16:32N 46°28' E 030°53'0 0.0
2016-May-12 15:32N 46°28' E 030°53'0 0.0
2016-May-12 14:32N 46°28' E 030°53'0 0.0
2016-May-12 13:32N 46°28' E 030°53'0 0.0
2016-May-12 12:29N 46°28' E 030°53'0 0.0
2016-May-12 11:32N 46°28' E 030°53'0 0.0
2016-May-12 10:32N 46°28' E 030°53'0 0.0
2016-May-12 09:32N 46°28' E 030°53'0 0.0
2016-May-12 08:32N 46°28' E 030°53'0 0.0
2016-May-12 07:32N 46°28' E 030°53'0 0.0
2016-May-12 06:32N 46°28' E 030°53'0 0.0
2016-May-12 05:32N 46°28' E 030°53'0 0.0
2016-May-12 04:32N 46°28' E 030°53'0 0.0
2016-May-12 03:32N 46°28' E 030°53'0 0.3
2016-May-12 02:33N 46°28' E 030°53'1110.8
2016-May-12 01:34N 46°17' E 030°56'1212.1
2016-May-12 00:33N 46°05' E 030°54'1312.9
2016-May-11 23:33N 45°53' E 030°50'1312.9
2016-May-11 22:33N 45°40' E 030°45'29212.7
2016-May-10 23:33N 40°59' E 028°59'8 7.7
2016-May-10 22:33N 40°53' E 028°53'  
Track history (hours):
 
Tides and Currents Weather Stations Pressure Air Temp Water Temp Dewpoint Dewpoint Depression Visibility Wind Speed Wind Dir Waves Ship Positions

Mustafa Sofuoglu

Last reported at 2016-May-19 00:33 UTC. Time now 2016-May-31 18:01 UTC.
Position N 40°58' E 029°00'.
Warning: this ship's position is 12 days out of date.

Length 106 m; draft 5.4 m.

Type: Cargo ship. MMSI: 271000831.

Date/timePositionNaut miles runAvg speedWind from/ knotsBaromVisibWave heightAir tempDewpointWater temp
2016-May-19 00:33N 40°58' E 029°00'8 6.5
2016-May-18 23:23N 40°53' E 029°08'3 3.5
2016-May-18 22:27N 40°51' E 029°11'0 0.0
2016-May-18 21:33N 40°51' E 029°11'0 0.1
2016-May-18 20:33N 40°51' E 029°11'0 0.0
2016-May-18 19:15N 40°51' E 029°11'0 0.0
2016-May-18 18:33N 40°51' E 029°11'0 0.0
2016-May-18 17:33N 40°51' E 029°11'0 0.0
2016-May-18 16:33N 40°51' E 029°11'0 0.0
2016-May-18 15:33N 40°51' E 029°11'0 0.0
2016-May-18 14:33N 40°51' E 029°11'0 0.0
2016-May-18 13:33N 40°51' E 029°11'4 4.1
2016-May-18 12:33N 40°48' E 029°14'1211.4
2016-May-18 11:32N 40°45' E 029°29'  
2016-May-16 00:29N 40°46' E 029°26'7 7.1
2016-May-15 23:33N 40°45' E 029°17'1212.4
2016-May-15 22:33N 40°50' E 029°02'10 9.8
2016-May-15 21:33N 40°59' E 028°60'32610.4
2016-May-14 14:09N 46°15' E 030°54'711.2
2016-May-14 13:33N 46°22' E 030°52'9 8.9
2016-May-14 12:34N 46°29' E 030°45'0 0.3
2016-May-14 11:31N 46°29' E 030°45'0 0.0
2016-May-14 10:31N 46°29' E 030°45'0 0.0
2016-May-14 09:31N 46°29' E 030°45'0 0.0
2016-May-14 08:31N 46°29' E 030°45'0 0.0
2016-May-14 07:31N 46°29' E 030°45'0 0.0
2016-May-14 06:28N 46°29' E 030°45'0 0.0
2016-May-14 05:31N 46°29' E 030°45'0 0.0
2016-May-14 04:31N 46°29' E 030°45'0 0.0
2016-May-14 03:31N 46°29' E 030°45'0 0.0
2016-May-14 02:31N 46°29' E 030°45'0 0.0
2016-May-14 01:31N 46°29' E 030°45'0 0.0
2016-May-14 00:31N 46°29' E 030°45'0 0.0
2016-May-13 23:31N 46°29' E 030°45'0 0.0
2016-May-13 22:31N 46°29' E 030°45'0 0.0
2016-May-13 21:31N 46°29' E 030°45'0 0.0
2016-May-13 20:31N 46°29' E 030°45'0 0.0
2016-May-13 19:31N 46°29' E 030°45'0 0.0
2016-May-13 18:31N 46°29' E 030°45'0 0.0
2016-May-13 17:31N 46°29' E 030°45'0 0.0
2016-May-13 16:31N 46°29' E 030°45'0 0.0
2016-May-13 15:31N 46°29' E 030°45'0 0.0
2016-May-13 14:31N 46°29' E 030°45'0 0.0
2016-May-13 13:31N 46°29' E 030°45'0 0.0
2016-May-13 12:31N 46°29' E 030°45'0 0.4
2016-May-13 11:33N 46°29' E 030°45'4 3.7
2016-May-13 10:33N 46°29' E 030°51'2 1.8
2016-May-13 09:32N 46°28' E 030°53'0 0.0
2016-May-13 08:32N 46°28' E 030°53'0 0.0
2016-May-13 07:32N 46°28' E 030°53'0 0.0
2016-May-13 06:32N 46°28' E 030°53'0 0.0
2016-May-13 05:32N 46°28' E 030°53'0 0.0
2016-May-13 04:32N 46°28' E 030°53'0 0.0
2016-May-13 03:32N 46°28' E 030°53'0 0.0
2016-May-13 02:32N 46°28' E 030°53'0 0.0
2016-May-13 01:32N 46°28' E 030°53'0 0.0
2016-May-13 00:32N 46°28' E 030°53'0 0.0
2016-May-12 23:32N 46°28' E 030°53'0 0.0
2016-May-12 22:32N 46°28' E 030°53'0 0.0
2016-May-12 21:32N 46°28' E 030°53'0 0.0
2016-May-12 20:32N 46°28' E 030°53'0 0.0
2016-May-12 19:32N 46°28' E 030°53'0 0.0
2016-May-12 18:32N 46°28' E 030°53'0 0.0
2016-May-12 17:32N 46°28' E 030°53'0 0.0
2016-May-12 16:32N 46°28' E 030°53'0 0.0
2016-May-12 15:32N 46°28' E 030°53'0 0.0
2016-May-12 14:32N 46°28' E 030°53'0 0.0
2016-May-12 13:32N 46°28' E 030°53'0 0.0
2016-May-12 12:29N 46°28' E 030°53'0 0.0
2016-May-12 11:32N 46°28' E 030°53'0 0.0
2016-May-12 10:32N 46°28' E 030°53'0 0.0
2016-May-12 09:32N 46°28' E 030°53'0 0.0
2016-May-12 08:32N 46°28' E 030°53'0 0.0
2016-May-12 07:32N 46°28' E 030°53'0 0.0
2016-May-12 06:32N 46°28' E 030°53'0 0.0
2016-May-12 05:32N 46°28' E 030°53'0 0.0
2016-May-12 04:32N 46°28' E 030°53'0 0.0
2016-May-12 03:32N 46°28' E 030°53'0 0.3
2016-May-12 02:33N 46°28' E 030°53'1110.8
2016-May-12 01:34N 46°17' E 030°56'1212.1
2016-May-12 00:33N 46°05' E 030°54'1312.9
2016-May-11 23:33N 45°53' E 030°50'1312.9
2016-May-11 22:33N 45°40' E 030°45'29212.7
2016-May-10 23:33N 40°59' E 028°59'8 7.7
2016-May-10 22:33N 40°53' E 028°53'  

Dump ship's entire track history